Ship Faced — WDI9727 — position and weather

sailwx.info

Track history (hours):
 
Tides and Currents Weather Stations Pressure Air Temp Water Temp Dewpoint Dewpoint Depression Visibility Wind Speed Wind Dir Waves Ship Positions

Ship Faced

Owner: Theriot, Cameron, Tustin, CA. More information available from US FCC via Universal Licensing System.

Last reported at 2018-Jan-12 12:50 UTC. Time now 2018-Jun-20 17:19 UTC.
Position N 31°01' W 116°41'.
Warning: this ship's position is months out of date.

Length 20 m; draft 2 m.

Type: Pleasure craft. MMSI: 367751540.

Date/timePositionNaut miles runAvg speedWind from/ knotsBaromVisibWave heightAir tempDewpointWater temp
2018-Jan-12 12:50N 31°01' W 116°41'3 8.1
2018-Jan-12 12:29N 31°04' W 116°43'91 8.1
2018-Jan-12 01:16N 32°25' W 117°29'2 8.3
2018-Jan-12 01:00N 32°27' W 117°31'4 8.2
2018-Jan-12 00:30N 32°30' W 117°35'4 7.9
2018-Jan-12 00:00N 32°33' W 117°38'6 8.1
2018-Jan-11 23:14N 32°37' W 117°43'2 8.0
2018-Jan-11 23:00N 32°39' W 117°43'4 8.3
2018-Jan-11 22:30N 32°43' W 117°43'4 8.1
2018-Jan-11 22:00N 32°47' W 117°42'4 8.1
2018-Jan-11 21:30N 32°51' W 117°42'4 8.1
2018-Jan-11 21:00N 32°55' W 117°41'4 8.1
2018-Jan-11 20:30N 32°59' W 117°40'4 8.1
2018-Jan-11 20:00N 33°03' W 117°40'4 8.0
2018-Jan-11 19:30N 33°07' W 117°39'4 8.1
2018-Jan-11 19:00N 33°11' W 117°39'4 7.9
2018-Jan-11 18:30N 33°15' W 117°38'4 7.7
2018-Jan-11 18:00N 33°19' W 117°38'4 7.8
2018-Jan-11 17:29N 33°23' W 117°40'4 7.9
2018-Jan-11 17:00N 33°26' W 117°41'  
Track history (hours):
 
Tides and Currents Weather Stations Pressure Air Temp Water Temp Dewpoint Dewpoint Depression Visibility Wind Speed Wind Dir Waves Ship Positions

Ship Faced

Owner: Theriot, Cameron, Tustin, CA. More information available from US FCC via Universal Licensing System.

Last reported at 2018-Jan-12 12:50 UTC. Time now 2018-Jun-20 17:19 UTC.
Position N 31°01' W 116°41'.
Warning: this ship's position is months out of date.

Length 20 m; draft 2 m.

Type: Pleasure craft. MMSI: 367751540.

Date/timePositionNaut miles runAvg speedWind from/ knotsBaromVisibWave heightAir tempDewpointWater temp
2018-Jan-12 12:50N 31°01' W 116°41'3 8.1
2018-Jan-12 12:29N 31°04' W 116°43'91 8.1
2018-Jan-12 01:16N 32°25' W 117°29'2 8.3
2018-Jan-12 01:00N 32°27' W 117°31'4 8.2
2018-Jan-12 00:30N 32°30' W 117°35'4 7.9
2018-Jan-12 00:00N 32°33' W 117°38'6 8.1
2018-Jan-11 23:14N 32°37' W 117°43'2 8.0
2018-Jan-11 23:00N 32°39' W 117°43'4 8.3
2018-Jan-11 22:30N 32°43' W 117°43'4 8.1
2018-Jan-11 22:00N 32°47' W 117°42'4 8.1
2018-Jan-11 21:30N 32°51' W 117°42'4 8.1
2018-Jan-11 21:00N 32°55' W 117°41'4 8.1
2018-Jan-11 20:30N 32°59' W 117°40'4 8.1
2018-Jan-11 20:00N 33°03' W 117°40'4 8.0
2018-Jan-11 19:30N 33°07' W 117°39'4 8.1
2018-Jan-11 19:00N 33°11' W 117°39'4 7.9
2018-Jan-11 18:30N 33°15' W 117°38'4 7.7
2018-Jan-11 18:00N 33°19' W 117°38'4 7.8
2018-Jan-11 17:29N 33°23' W 117°40'4 7.9
2018-Jan-11 17:00N 33°26' W 117°41'  

Dump ship's entire track history